Sheridan, California
Current Conditions -  °F | °C
As of 11:15 AM on Monday 20 Oct 2014 (Local Time) from KLHM Reporting Station
Scattered Clouds Scattered Clouds  
Wind Chill: 68°   Ceiling: Unl
Heat Index: 68°   Visibility: 10mi
Dew Point: 54°   Wind: 9mph
Humidity: 60%   Direction: 180°S
Pressure: 29.94"   Gusts: NA
Location:  38.98°N, 121.38°W
Report Text: KLHM 201815Z AUTO 18008KT 10SM SCT025 20/12 A2994 RMK AO1
Loading
Personal Weather Stations






























Interactive Weather Map
Tropical Storm Tracking
New forecast layout! Learn more

10-Day Weather Forecast

Advertisements
Track Severe Weather on mobile